Time;durP1;ratioP1;P1;durP2;ratioP2;P2;SDS_P1;SDS_P2;PMS_P1;PMS_P2;Temp;Humidity;BMP_temperature;BMP_pressure;BME280_temperature;BME280_humidity;BME280_pressure;Samples;Min_cycle;Max_cycle;Signal;HPM_P1;HPM_P2
2023/12/14 00:00:45;;;;;;;23.13;10.50;;;3.70;99.90;;;;;;4970480;28;20217;-63
2023/12/14 00:03:10;;;;;;;28.90;11.47;;;3.80;99.90;;;;;;4971440;28;20189;-64
2023/12/14 00:05:36;;;;;;;30.70;11.77;;;3.70;99.90;;;;;;4971351;28;20541;-64
2023/12/14 00:08:01;;;;;;;28.43;10.90;;;3.80;99.90;;;;;;4965229;28;20280;-65
2023/12/14 00:10:27;;;;;;;24.43;10.63;;;3.80;99.90;;;;;;4970663;28;20300;-62
2023/12/14 00:12:55;;;;;;;26.37;11.00;;;3.80;99.90;;;;;;4971927;28;20193;-62
2023/12/14 00:15:20;;;;;;;26.13;11.33;;;3.80;99.90;;;;;;4971669;28;20573;-61
2023/12/14 00:17:46;;;;;;;23.63;10.37;;;3.80;99.90;;;;;;4971450;28;20268;-62
2023/12/14 00:20:12;;;;;;;22.53;9.37;;;3.80;99.90;;;;;;4970562;28;20608;-61
2023/12/14 00:22:38;;;;;;;28.23;9.83;;;3.80;99.90;;;;;;4971278;28;20213;-63
2023/12/14 00:25:05;;;;;;;22.60;10.67;;;3.80;99.90;;;;;;4971406;28;20194;-64
2023/12/14 00:27:30;;;;;;;23.97;9.37;;;3.80;99.90;;;;;;4971180;28;20582;-65
2023/12/14 00:29:56;;;;;;;23.37;9.10;;;3.80;99.90;;;;;;4970970;28;20190;-62
2023/12/14 00:32:21;;;;;;;27.07;9.63;;;3.80;99.90;;;;;;4970947;28;20178;-64
2023/12/14 00:34:48;;;;;;;28.63;10.03;;;3.80;99.90;;;;;;4971734;28;20692;-64
2023/12/14 00:37:13;;;;;;;22.87;10.20;;;3.80;99.90;;;;;;4970095;28;20193;-64
2023/12/14 00:39:39;;;;;;;21.27;9.27;;;3.80;99.90;;;;;;4971144;28;20540;-65
2023/12/14 00:42:04;;;;;;;22.20;8.40;;;3.70;99.90;;;;;;4970630;28;20593;-65
2023/12/14 00:44:30;;;;;;;21.97;9.03;;;3.80;99.90;;;;;;4970809;28;20726;-65
2023/12/14 00:46:56;;;;;;;24.00;9.83;;;3.90;99.90;;;;;;4971145;28;20217;-63
2023/12/14 00:49:22;;;;;;;19.10;9.03;;;3.90;99.90;;;;;;4971226;28;20193;-63
2023/12/14 00:51:47;;;;;;;26.90;9.00;;;3.90;99.90;;;;;;4971339;28;20206;-65
2023/12/14 00:54:13;;;;;;;25.27;9.07;;;3.90;99.90;;;;;;4971210;28;20182;-65
2023/12/14 00:56:38;;;;;;;21.77;9.63;;;4.00;99.90;;;;;;4971189;28;20197;-64
2023/12/14 00:59:04;;;;;;;23.20;9.13;;;3.80;99.90;;;;;;4970851;28;20190;-66
2023/12/14 01:01:29;;;;;;;18.33;7.90;;;3.80;99.90;;;;;;4970211;28;20208;-62
2023/12/14 01:03:55;;;;;;;20.20;8.57;;;3.90;99.90;;;;;;4972558;28;20193;-64
2023/12/14 01:06:21;;;;;;;18.53;8.17;;;3.90;99.90;;;;;;4974632;28;20213;-63
2023/12/14 01:08:46;;;;;;;15.67;6.97;;;4.00;99.90;;;;;;4975050;28;20178;-60
2023/12/14 01:11:12;;;;;;;24.53;8.13;;;4.00;99.90;;;;;;4973471;28;20623;-64
2023/12/14 01:13:40;;;;;;;17.77;7.87;;;4.10;99.90;;;;;;4974224;28;20178;-64
2023/12/14 01:16:06;;;;;;;19.90;8.87;;;4.10;99.90;;;;;;4974264;28;20190;-64
2023/12/14 01:18:32;;;;;;;24.13;9.20;;;4.10;99.90;;;;;;4973998;28;20186;-64
2023/12/14 01:20:57;;;;;;;21.30;8.37;;;4.10;99.90;;;;;;4973397;28;20283;-63
2023/12/14 01:23:23;;;;;;;20.17;8.57;;;4.10;99.90;;;;;;4974131;28;20186;-63
2023/12/14 01:25:48;;;;;;;19.13;8.53;;;4.10;99.90;;;;;;4974090;28;20244;-65
2023/12/14 01:28:14;;;;;;;21.90;8.40;;;4.10;99.90;;;;;;4973759;28;20190;-65
2023/12/14 01:30:39;;;;;;;21.03;8.40;;;4.10;99.90;;;;;;4973338;28;20244;-64
2023/12/14 01:33:05;;;;;;;18.53;8.50;;;4.20;99.90;;;;;;4973714;28;20193;-63
2023/12/14 01:35:30;;;;;;;19.47;8.57;;;4.20;99.90;;;;;;4973726;28;20185;-64
2023/12/14 01:37:56;;;;;;;19.10;8.67;;;4.20;99.90;;;;;;4972754;28;20193;-64
2023/12/14 01:40:21;;;;;;;16.63;7.83;;;4.20;99.90;;;;;;4971755;28;20206;-65
2023/12/14 01:42:47;;;;;;;17.53;8.90;;;4.20;99.90;;;;;;4973652;28;20244;-64
2023/12/14 01:45:16;;;;;;;19.90;8.53;;;4.30;99.90;;;;;;4973986;28;20186;-64
2023/12/14 01:47:42;;;;;;;13.67;7.53;;;4.30;99.90;;;;;;4973912;28;20217;-64
2023/12/14 01:50:08;;;;;;;17.47;7.70;;;4.30;99.90;;;;;;4973186;28;20198;-63
2023/12/14 01:52:34;;;;;;;21.13;7.90;;;4.30;99.90;;;;;;4973765;28;20682;-63
2023/12/14 01:54:59;;;;;;;17.90;8.07;;;4.30;99.90;;;;;;4973681;28;20177;-63
2023/12/14 01:57:25;;;;;;;15.03;7.37;;;4.40;99.90;;;;;;4973544;28;20557;-62
2023/12/14 01:59:50;;;;;;;14.97;7.17;;;4.40;99.90;;;;;;4973237;28;20189;-63
2023/12/14 02:02:16;;;;;;;14.13;6.47;;;4.40;99.90;;;;;;4973318;28;20185;-63
2023/12/14 02:04:42;;;;;;;13.83;7.30;;;4.40;99.90;;;;;;4973559;28;20181;-63
2023/12/14 02:07:07;;;;;;;19.33;7.37;;;4.40;99.90;;;;;;4973411;28;20197;-63
2023/12/14 02:09:33;;;;;;;16.53;7.80;;;4.40;99.90;;;;;;4973198;28;20248;-64
2023/12/14 02:11:58;;;;;;;17.73;8.03;;;4.40;99.90;;;;;;4972709;28;20300;-64
2023/12/14 02:14:24;;;;;;;16.20;7.23;;;4.40;99.90;;;;;;4972678;28;20193;-62
2023/12/14 02:16:49;;;;;;;17.83;7.37;;;4.40;99.90;;;;;;4973555;28;20194;-65
2023/12/14 02:19:15;;;;;;;20.23;7.50;;;4.50;99.90;;;;;;4972846;28;20201;-60
2023/12/14 02:21:41;;;;;;;19.27;8.17;;;4.50;99.90;;;;;;4972479;28;20825;-63
2023/12/14 02:24:06;;;;;;;20.20;7.70;;;4.40;99.90;;;;;;4973083;28;20189;-64
2023/12/14 02:26:32;;;;;;;18.60;7.77;;;4.50;99.90;;;;;;4972770;28;20204;-63
2023/12/14 02:28:57;;;;;;;15.47;7.70;;;4.50;99.90;;;;;;4973199;28;20546;-64
2023/12/14 02:31:23;;;;;;;20.60;7.73;;;4.50;99.90;;;;;;4972192;28;20205;-63
2023/12/14 02:33:49;;;;;;;16.47;7.53;;;4.50;99.90;;;;;;4972877;28;20182;-63
2023/12/14 02:36:14;;;;;;;15.67;7.50;;;4.60;99.90;;;;;;4972839;28;20182;-60
2023/12/14 02:38:40;;;;;;;20.27;8.17;;;4.50;99.90;;;;;;4972861;28;20558;-65
2023/12/14 02:41:05;;;;;;;18.17;8.20;;;4.40;99.90;;;;;;4972041;28;20206;-65
2023/12/14 02:43:31;;;;;;;17.53;8.00;;;4.50;99.90;;;;;;4972572;28;20178;-65
2023/12/14 02:46:01;;;;;;;25.43;9.63;;;4.50;99.90;;;;;;4987587;28;20289;-64
2023/12/14 02:48:28;;;;;;;24.03;9.30;;;4.50;99.90;;;;;;4972633;28;20193;-64
2023/12/14 02:50:53;;;;;;;20.17;8.00;;;4.60;99.90;;;;;;4972097;28;20214;-64
2023/12/14 02:53:19;;;;;;;16.47;7.67;;;4.60;99.90;;;;;;4972567;28;20538;-65
2023/12/14 02:55:44;;;;;;;19.43;9.47;;;4.70;99.90;;;;;;4972461;28;20182;-65
2023/12/14 02:58:10;;;;;;;17.37;7.73;;;4.70;99.90;;;;;;4972235;28;20281;-63
2023/12/14 03:00:36;;;;;;;17.70;7.87;;;4.70;99.90;;;;;;4971871;28;20229;-64
2023/12/14 03:03:01;;;;;;;16.43;8.10;;;4.70;99.90;;;;;;4972389;28;20182;-65
2023/12/14 03:05:27;;;;;;;20.93;8.77;;;4.70;99.90;;;;;;4972232;28;20189;-63
2023/12/14 03:07:52;;;;;;;19.43;8.70;;;4.70;99.90;;;;;;4972285;28;20741;-66
2023/12/14 03:10:18;;;;;;;21.93;8.97;;;4.70;99.90;;;;;;4971302;28;20197;-63
2023/12/14 03:12:44;;;;;;;18.43;8.30;;;4.80;99.90;;;;;;4972216;28;20658;-64
2023/12/14 03:15:10;;;;;;;17.20;7.90;;;4.90;99.90;;;;;;4972122;28;20189;-64
2023/12/14 03:17:35;;;;;;;22.53;8.13;;;4.80;99.90;;;;;;4964259;28;20193;-64
2023/12/14 03:20:03;;;;;;;18.50;7.43;;;4.90;99.90;;;;;;4971434;28;20236;-65
2023/12/14 03:22:28;;;;;;;19.37;8.53;;;4.90;99.90;;;;;;4972073;28;20198;-63
2023/12/14 03:24:54;;;;;;;19.17;7.63;;;4.90;99.90;;;;;;4972186;28;20197;-65
2023/12/14 03:27:20;;;;;;;20.37;8.03;;;4.90;99.90;;;;;;4971221;28;20220;-63
2023/12/14 03:29:45;;;;;;;21.40;8.97;;;4.90;99.90;;;;;;4971849;28;20193;-65
2023/12/14 03:32:11;;;;;;;18.90;8.07;;;4.90;99.90;;;;;;4971425;28;20193;-65
2023/12/14 03:34:36;;;;;;;21.10;8.20;;;4.90;99.90;;;;;;4971892;28;20264;-65
2023/12/14 03:37:02;;;;;;;19.10;7.97;;;4.80;99.90;;;;;;4972003;28;20190;-64
2023/12/14 03:39:27;;;;;;;18.67;7.30;;;4.80;99.90;;;;;;4971769;28;20189;-65
2023/12/14 03:41:53;;;;;;;17.83;8.10;;;4.80;99.90;;;;;;4971198;28;20209;-64
2023/12/14 03:44:19;;;;;;;20.57;7.87;;;4.80;99.90;;;;;;4971683;28;20264;-63
2023/12/14 03:46:44;;;;;;;17.00;6.90;;;4.80;99.90;;;;;;4971586;28;20678;-65
2023/12/14 03:49:10;;;;;;;13.43;6.57;;;4.80;99.90;;;;;;4971819;28;20182;-63
2023/12/14 03:51:35;;;;;;;13.57;6.70;;;4.80;99.90;;;;;;4963535;28;20292;-65
2023/12/14 03:54:01;;;;;;;16.77;7.00;;;4.80;99.90;;;;;;4971504;28;20652;-64
2023/12/14 03:56:26;;;;;;;17.73;6.47;;;4.80;99.90;;;;;;4971643;28;20276;-64
2023/12/14 03:58:52;;;;;;;16.73;6.93;;;4.90;99.90;;;;;;4971441;28;20217;-63
2023/12/14 04:01:19;;;;;;;15.60;6.67;;;4.90;99.90;;;;;;4970739;28;20734;-63
2023/12/14 04:03:45;;;;;;;14.83;6.73;;;4.80;99.90;;;;;;4971841;28;20182;-64
2023/12/14 04:06:14;;;;;;;17.47;6.97;;;4.90;99.90;;;;;;4971774;28;20217;-65
2023/12/14 04:08:40;;;;;;;12.60;6.53;;;4.90;99.90;;;;;;4970677;28;20189;-65
2023/12/14 04:11:06;;;;;;;14.10;6.57;;;4.90;99.90;;;;;;4971086;28;20250;-65
2023/12/14 04:13:32;;;;;;;16.27;7.43;;;4.90;99.90;;;;;;4971225;28;20257;-66
2023/12/14 04:15:58;;;;;;;19.50;7.37;;;4.90;99.90;;;;;;4971495;28;20269;-63
2023/12/14 04:18:24;;;;;;;18.00;7.47;;;5.00;99.90;;;;;;4971196;28;20756;-65
2023/12/14 04:20:52;;;;;;;16.30;7.57;;;4.90;99.90;;;;;;4970812;28;20225;-65
2023/12/14 04:23:18;;;;;;;20.37;8.90;;;4.80;99.90;;;;;;4971313;28;20727;-65
2023/12/14 04:25:44;;;;;;;18.10;7.20;;;4.80;99.90;;;;;;4971744;28;20186;-65
2023/12/14 04:28:10;;;;;;;28.27;8.90;;;4.80;99.90;;;;;;4971411;28;20188;-65
2023/12/14 04:30:35;;;;;;;20.73;8.43;;;4.80;99.90;;;;;;4970699;28;20271;-65
2023/12/14 04:33:01;;;;;;;22.17;8.67;;;4.80;99.90;;;;;;4971279;28;20237;-65
2023/12/14 04:35:26;;;;;;;22.87;9.07;;;4.80;99.90;;;;;;4971259;28;20612;-65
2023/12/14 04:37:52;;;;;;;16.03;7.87;;;4.90;99.90;;;;;;4987556;28;20189;-65
2023/12/14 04:40:18;;;;;;;22.10;8.97;;;4.90;99.90;;;;;;4974187;28;20213;-65
2023/12/14 04:42:44;;;;;;;24.60;9.13;;;5.00;99.90;;;;;;4975175;28;20201;-65
2023/12/14 04:45:10;;;;;;;20.10;9.33;;;5.10;99.90;;;;;;4974806;28;20190;-63
2023/12/14 04:47:36;;;;;;;32.37;11.73;;;5.10;99.90;;;;;;4989863;28;20217;-62
2023/12/14 04:50:02;;;;;;;21.40;10.00;;;5.20;99.90;;;;;;4974659;28;20687;-63
2023/12/14 04:52:28;;;;;;;23.13;10.40;;;5.20;99.90;;;;;;4974815;28;20296;-61
2023/12/14 04:54:53;;;;;;;23.00;9.87;;;5.30;99.90;;;;;;4974847;28;20293;-64
2023/12/14 04:57:19;;;;;;;21.13;8.70;;;5.30;99.90;;;;;;4989526;28;20224;-63
2023/12/14 04:59:45;;;;;;;17.67;8.97;;;5.30;99.90;;;;;;4974609;28;20186;-63
2023/12/14 05:02:10;;;;;;;23.67;9.63;;;5.30;99.90;;;;;;4989143;28;20290;-64
2023/12/14 05:04:36;;;;;;;26.60;9.90;;;5.30;99.90;;;;;;4974496;28;20190;-63
2023/12/14 05:07:02;;;;;;;22.17;10.03;;;5.30;99.90;;;;;;4973187;28;20556;-63
2023/12/14 05:09:28;;;;;;;20.57;9.93;;;5.40;99.90;;;;;;4974602;28;20244;-63
2023/12/14 05:11:53;;;;;;;24.13;10.67;;;5.50;99.90;;;;;;4973711;28;20675;-63
2023/12/14 05:14:19;;;;;;;25.83;10.20;;;5.50;99.90;;;;;;4974237;28;20186;-64
2023/12/14 05:16:44;;;;;;;24.27;9.87;;;5.60;99.90;;;;;;4974640;28;20197;-64
2023/12/14 05:19:10;;;;;;;26.20;10.27;;;5.60;99.90;;;;;;4974247;28;20194;-64
2023/12/14 05:21:35;;;;;;;30.63;10.70;;;5.60;99.90;;;;;;4973593;28;20217;-63
2023/12/14 05:24:01;;;;;;;25.40;10.53;;;5.70;99.90;;;;;;4974303;28;20190;-63
2023/12/14 05:26:27;;;;;;;26.77;10.73;;;5.70;99.90;;;;;;4974155;28;20213;-61
2023/12/14 05:28:52;;;;;;;27.03;10.73;;;5.70;99.90;;;;;;4974180;28;20655;-64
2023/12/14 05:31:18;;;;;;;24.17;9.77;;;5.80;99.90;;;;;;4973820;28;20287;-65
2023/12/14 05:33:43;;;;;;;26.90;9.53;;;5.80;99.90;;;;;;4974335;28;20192;-64
2023/12/14 05:36:10;;;;;;;23.47;9.30;;;5.80;99.90;;;;;;4973820;28;20186;-64
2023/12/14 05:38:40;;;;;;;22.63;9.20;;;5.90;99.90;;;;;;4973894;28;20626;-63
2023/12/14 05:41:05;;;;;;;24.20;8.67;;;5.90;99.90;;;;;;4972852;28;20216;-60
2023/12/14 05:43:31;;;;;;;25.97;8.93;;;6.00;99.90;;;;;;4973917;28;20198;-63
2023/12/14 05:45:57;;;;;;;22.90;9.33;;;6.10;99.90;;;;;;4973850;28;20197;-64
2023/12/14 05:48:22;;;;;;;23.80;9.10;;;6.10;99.90;;;;;;4973792;28;20597;-63
2023/12/14 05:50:48;;;;;;;23.13;8.80;;;6.10;99.90;;;;;;4972285;28;20711;-62
2023/12/14 05:53:13;;;;;;;22.87;9.60;;;6.00;99.90;;;;;;4973670;28;20178;-64
2023/12/14 05:55:40;;;;;;;27.13;10.27;;;6.10;99.90;;;;;;4973730;28;20663;-64
2023/12/14 05:58:07;;;;;;;28.07;10.87;;;6.10;99.90;;;;;;4973654;28;20775;-63
2023/12/14 06:00:34;;;;;;;23.77;9.47;;;6.10;99.90;;;;;;4972304;28;20224;-58
2023/12/14 06:03:00;;;;;;;23.50;8.53;;;6.10;99.90;;;;;;4973344;28;20232;-62
2023/12/14 06:05:25;;;;;;;25.57;9.70;;;6.20;99.90;;;;;;4973436;28;20272;-63
2023/12/14 06:07:51;;;;;;;27.60;9.63;;;6.10;99.90;;;;;;4973634;28;20221;-64
2023/12/14 06:10:17;;;;;;;26.17;9.37;;;6.10;99.90;;;;;;4972629;28;20282;-64
2023/12/14 06:12:42;;;;;;;21.13;8.40;;;6.10;99.90;;;;;;4973444;28;20276;-64
2023/12/14 06:15:08;;;;;;;25.70;9.87;;;6.20;99.90;;;;;;4973138;28;20195;-63
2023/12/14 06:17:34;;;;;;;22.57;9.00;;;6.10;99.90;;;;;;4967826;28;20236;-64
2023/12/14 06:19:59;;;;;;;20.83;9.17;;;6.20;99.90;;;;;;4967632;28;20679;-65
2023/12/14 06:22:26;;;;;;;21.00;9.10;;;6.20;99.90;;;;;;4968534;28;20687;-63
2023/12/14 06:24:52;;;;;;;16.70;7.90;;;6.10;99.90;;;;;;4973289;28;20182;-64
2023/12/14 06:27:17;;;;;;;19.53;7.70;;;6.10;99.90;;;;;;4964555;28;20746;-64
2023/12/14 06:29:43;;;;;;;19.50;7.73;;;6.20;99.90;;;;;;4972772;28;20185;-64
2023/12/14 06:32:08;;;;;;;18.90;7.47;;;6.10;99.90;;;;;;4972141;28;20773;-64
2023/12/14 06:34:34;;;;;;;13.00;5.50;;;6.10;99.90;;;;;;4973077;28;20706;-62
2023/12/14 06:37:00;;;;;;;17.03;6.13;;;6.20;99.90;;;;;;4972937;28;20616;-63
2023/12/14 06:39:26;;;;;;;14.97;6.23;;;6.10;99.90;;;;;;4971642;28;20213;-64
2023/12/14 06:41:55;;;;;;;15.00;6.27;;;6.10;99.90;;;;;;4971995;28;20251;-64
2023/12/14 06:44:20;;;;;;;12.83;6.30;;;6.00;99.90;;;;;;4972550;28;20193;-64
2023/12/14 06:46:46;;;;;;;12.23;5.63;;;6.10;99.90;;;;;;4972702;28;20210;-61
2023/12/14 06:49:11;;;;;;;10.80;4.90;;;6.10;99.90;;;;;;4972596;28;20178;-63
2023/12/14 06:51:37;;;;;;;9.67;4.50;;;6.10;99.90;;;;;;4971904;28;20197;-59
2023/12/14 06:54:03;;;;;;;10.77;4.27;;;6.10;99.90;;;;;;4972735;28;20185;-64
2023/12/14 06:56:28;;;;;;;8.03;3.87;;;6.10;99.90;;;;;;4972570;28;20198;-62
2023/12/14 06:58:54;;;;;;;7.10;3.43;;;6.10;99.90;;;;;;4972345;28;20213;-62
2023/12/14 07:01:19;;;;;;;8.57;3.90;;;6.10;99.90;;;;;;4971552;28;20213;-57
2023/12/14 07:03:45;;;;;;;7.43;3.87;;;6.10;99.90;;;;;;4972423;28;20226;-60
2023/12/14 07:06:18;;;;;;;4.93;3.10;;;6.10;99.90;;;;;;4972280;28;20643;-57
2023/12/14 07:08:44;;;;;;;8.10;3.33;;;6.10;99.90;;;;;;4965278;28;20182;-60
2023/12/14 07:11:10;;;;;;;9.50;3.40;;;6.10;99.90;;;;;;4971882;28;20332;-60
2023/12/14 07:13:36;;;;;;;7.30;3.70;;;6.10;99.90;;;;;;4972567;28;20200;-62
2023/12/14 07:16:09;;;;;;;7.73;3.30;;;6.10;99.90;;;;;;4972817;28;20655;-61
2023/12/14 07:18:39;;;;;;;8.53;4.03;;;6.10;99.90;;;;;;4972787;28;20181;-61
2023/12/14 07:21:06;;;;;;;14.10;6.80;;;6.10;99.90;;;;;;4972203;28;20241;-61
2023/12/14 07:23:31;;;;;;;12.53;5.80;;;6.10;99.90;;;;;;4972898;28;20663;-59
2023/12/14 07:25:57;;;;;;;9.17;4.77;;;6.10;99.90;;;;;;4972116;28;20190;-60
2023/12/14 07:28:23;;;;;;;8.33;4.57;;;6.10;99.90;;;;;;4971663;28;20182;-61
2023/12/14 07:30:49;;;;;;;9.50;4.30;;;6.10;99.90;;;;;;4971532;28;20297;-62
2023/12/14 07:33:16;;;;;;;7.17;3.83;;;6.00;99.90;;;;;;4971831;28;20553;-62
2023/12/14 07:35:42;;;;;;;11.03;4.13;;;6.00;99.90;;;;;;4971898;28;20197;-59
2023/12/14 07:38:09;;;;;;;9.17;4.20;;;6.10;99.90;;;;;;4971880;28;20221;-59
2023/12/14 07:40:35;;;;;;;9.63;4.27;;;6.10;99.90;;;;;;4970971;28;20701;-61
2023/12/14 07:43:00;;;;;;;6.67;3.60;;;6.10;99.90;;;;;;4971772;28;20182;-63
2023/12/14 07:45:26;;;;;;;10.77;4.57;;;6.10;99.90;;;;;;4971241;28;20550;-59
2023/12/14 07:47:51;;;;;;;7.53;4.10;;;6.10;99.90;;;;;;4970586;28;20285;-60
2023/12/14 07:50:17;;;;;;;7.87;3.90;;;6.10;99.90;;;;;;4969821;28;20214;-60
2023/12/14 07:52:42;;;;;;;9.90;4.10;;;6.20;99.90;;;;;;4970731;28;20181;-65
2023/12/14 07:55:08;;;;;;;7.80;3.60;;;6.20;99.90;;;;;;4971371;28;20706;-61
2023/12/14 07:57:34;;;;;;;6.93;3.07;;;6.30;99.90;;;;;;4970812;28;20197;-61
2023/12/14 07:59:59;;;;;;;7.07;3.57;;;6.20;99.90;;;;;;4969862;28;20194;-67
2023/12/14 08:02:25;;;;;;;4.30;2.37;;;6.30;99.90;;;;;;4970737;28;20217;-58
2023/12/14 08:04:51;;;;;;;6.87;3.43;;;6.20;99.90;;;;;;4971040;28;20572;-60
2023/12/14 08:07:17;;;;;;;4.23;2.67;;;6.30;99.90;;;;;;4970667;28;20213;-59
2023/12/14 08:09:42;;;;;;;8.83;3.60;;;6.30;99.90;;;;;;4970604;28;20408;-61
2023/12/14 08:12:08;;;;;;;6.57;3.10;;;6.20;99.90;;;;;;4971247;28;20200;-60
2023/12/14 08:14:34;;;;;;;6.57;3.50;;;6.20;99.90;;;;;;4977238;28;20208;-62
2023/12/14 08:17:01;;;;;;;5.27;2.60;;;6.10;99.90;;;;;;4977095;28;20185;-61
2023/12/14 08:19:27;;;;;;;8.30;2.80;;;6.10;99.90;;;;;;4977035;28;20201;-61
2023/12/14 08:21:53;;;;;;;4.97;2.50;;;6.10;99.90;;;;;;4976791;28;20205;-59
2023/12/14 08:24:18;;;;;;;3.47;2.10;;;6.10;99.90;;;;;;4976954;28;20582;-62
2023/12/14 08:26:44;;;;;;;5.03;2.60;;;6.10;99.90;;;;;;4976956;28;20215;-59
2023/12/14 08:29:09;;;;;;;5.60;2.30;;;6.00;99.90;;;;;;4976854;28;20240;-62
2023/12/14 08:31:35;;;;;;;3.77;1.97;;;6.10;99.90;;;;;;4976184;28;20216;-61
2023/12/14 08:34:00;;;;;;;5.30;1.97;;;6.10;99.90;;;;;;4976868;28;20186;-59
2023/12/14 08:36:26;;;;;;;6.23;1.87;;;6.10;99.90;;;;;;4976052;28;20655;-61
2023/12/14 08:38:52;;;;;;;3.87;2.07;;;6.10;99.90;;;;;;4977018;28;20194;-62
2023/12/14 08:41:17;;;;;;;4.30;2.20;;;6.10;99.90;;;;;;4976069;28;20296;-61
2023/12/14 08:43:43;;;;;;;5.77;2.70;;;6.20;99.90;;;;;;4976964;28;20910;-63
2023/12/14 08:46:09;;;;;;;4.50;2.40;;;6.10;99.90;;;;;;4976822;28;20597;-63
2023/12/14 08:48:35;;;;;;;3.97;2.27;;;6.10;99.90;;;;;;4976931;28;20197;-60
2023/12/14 08:51:01;;;;;;;5.20;3.10;;;6.10;99.90;;;;;;4976325;28;20574;-62
2023/12/14 08:53:28;;;;;;;6.07;2.13;;;6.20;99.90;;;;;;4991543;28;20181;-61
2023/12/14 08:55:54;;;;;;;4.67;2.10;;;6.20;99.90;;;;;;4976914;28;20182;-65
2023/12/14 08:58:19;;;;;;;4.63;2.00;;;6.20;99.90;;;;;;4976607;28;20675;-62
2023/12/14 09:00:45;;;;;;;5.30;2.33;;;6.30;99.90;;;;;;4976218;28;20202;-62
2023/12/14 09:03:11;;;;;;;2.90;1.90;;;6.30;99.90;;;;;;4976888;28;20401;-62
2023/12/14 09:05:37;;;;;;;4.50;2.40;;;6.30;99.90;;;;;;4976703;28;20245;-62
2023/12/14 09:08:02;;;;;;;4.20;2.43;;;6.40;99.90;;;;;;4976589;28;20213;-63
2023/12/14 09:10:28;;;;;;;4.40;2.30;;;6.50;99.90;;;;;;4975906;28;20750;-67
2023/12/14 09:12:54;;;;;;;5.47;2.43;;;6.40;99.90;;;;;;4976747;28;20199;-63
2023/12/14 09:15:19;;;;;;;6.00;2.83;;;6.50;99.90;;;;;;4976602;28;20248;-63
2023/12/14 09:17:45;;;;;;;4.63;2.57;;;6.50;99.90;;;;;;4976890;28;20182;-62
2023/12/14 09:20:11;;;;;;;6.60;3.17;;;6.60;99.90;;;;;;4975770;28;20715;-61
2023/12/14 09:22:37;;;;;;;4.57;2.13;;;6.70;99.90;;;;;;4976590;28;20182;-62
2023/12/14 09:25:03;;;;;;;5.43;2.87;;;6.70;99.90;;;;;;4973092;28;20188;-64
2023/12/14 09:27:29;;;;;;;4.23;2.63;;;6.60;99.90;;;;;;4973291;28;20217;-61
2023/12/14 09:29:55;;;;;;;5.17;2.53;;;6.50;99.90;;;;;;4973231;28;20174;-59
2023/12/14 09:32:21;;;;;;;5.00;2.47;;;6.50;99.90;;;;;;4972758;28;20178;-58
2023/12/14 09:34:46;;;;;;;8.07;2.60;;;6.50;99.90;;;;;;4973692;28;20635;-67
2023/12/14 09:37:14;;;;;;;4.87;2.83;;;6.40;99.90;;;;;;4973366;28;20535;-60
2023/12/14 09:39:39;;;;;;;5.67;2.90;;;6.40;99.90;;;;;;4973215;28;20178;-62
2023/12/14 09:42:08;;;;;;;5.30;3.07;;;6.30;99.90;;;;;;4971436;28;20722;-62
2023/12/14 09:44:35;;;;;;;6.43;2.90;;;6.30;99.90;;;;;;4972945;28;20228;-60
2023/12/14 09:47:02;;;;;;;6.30;3.03;;;6.40;99.90;;;;;;4973024;28;20233;-59
2023/12/14 09:49:29;;;;;;;6.27;3.50;;;6.40;99.90;;;;;;4973534;28;20182;-62
2023/12/14 09:51:58;;;;;;;7.80;3.13;;;6.50;99.90;;;;;;4972526;28;20201;-62
2023/12/14 09:54:26;;;;;;;3.77;2.30;;;6.40;99.90;;;;;;4972778;28;20253;-59
2023/12/14 09:56:55;;;;;;;4.53;2.30;;;6.40;99.90;;;;;;4973094;28;20278;-61
2023/12/14 09:59:21;;;;;;;4.57;2.67;;;6.50;99.90;;;;;;4972594;28;20228;-61
2023/12/14 10:01:47;;;;;;;4.47;2.37;;;6.50;99.90;;;;;;4972378;28;20546;-59
2023/12/14 10:04:13;;;;;;;5.20;2.63;;;6.60;99.90;;;;;;4972850;28;20193;-61
2023/12/14 10:06:40;;;;;;;5.50;2.33;;;6.60;99.90;;;;;;4972706;28;20201;-64
2023/12/14 10:09:09;;;;;;;4.73;2.60;;;6.60;99.90;;;;;;4972559;28;20666;-64
2023/12/14 10:11:36;;;;;;;3.67;2.10;;;6.60;99.90;;;;;;4971978;28;20284;-61
2023/12/14 10:14:02;;;;;;;4.27;2.33;;;6.60;99.90;;;;;;4972486;28;20499;-61
2023/12/14 10:16:29;;;;;;;3.37;2.27;;;6.60;99.90;;;;;;4972497;28;20567;-63
2023/12/14 10:18:56;;;;;;;4.40;2.63;;;6.70;99.90;;;;;;4972228;28;20300;-56
2023/12/14 10:21:21;;;;;;;4.27;2.70;;;6.60;99.90;;;;;;4971418;28;20218;-60
2023/12/14 10:23:47;;;;;;;4.87;2.80;;;6.70;99.90;;;;;;4972351;28;20539;-62
2023/12/14 10:26:12;;;;;;;4.13;2.60;;;6.70;99.90;;;;;;4972394;28;20194;-61
2023/12/14 10:28:40;;;;;;;4.93;3.03;;;6.70;99.90;;;;;;4972119;28;20189;-65
2023/12/14 10:31:06;;;;;;;4.20;2.70;;;6.60;99.90;;;;;;4971675;28;20197;-62
2023/12/14 10:33:31;;;;;;;6.10;3.50;;;6.70;99.90;;;;;;4972288;28;20269;-58
2023/12/14 10:35:57;;;;;;;6.63;3.37;;;6.80;99.90;;;;;;4971677;28;20184;-60
2023/12/14 10:38:25;;;;;;;6.33;3.20;;;6.70;99.90;;;;;;4971846;28;20207;-63
2023/12/14 10:40:53;;;;;;;6.43;3.30;;;6.60;99.90;;;;;;4971886;28;20289;-60
2023/12/14 10:43:19;;;;;;;5.63;3.37;;;6.60;99.90;;;;;;4971686;28;20531;-61
2023/12/14 10:45:47;;;;;;;7.23;3.30;;;6.60;99.90;;;;;;4971860;28;20205;-61
2023/12/14 10:48:13;;;;;;;6.13;3.67;;;6.70;99.90;;;;;;4972051;28;20264;-58
2023/12/14 10:50:42;;;;;;;5.63;3.60;;;6.70;99.90;;;;;;4970928;28;20220;-59
2023/12/14 10:53:08;;;;;;;5.57;2.97;;;6.70;99.90;;;;;;4971728;28;20542;-64
2023/12/14 10:55:42;;;;;;;6.80;3.57;;;6.70;99.90;;;;;;4972193;28;20189;-59
2023/12/14 10:58:08;;;;;;;6.47;3.63;;;6.60;99.90;;;;;;4971858;28;20652;-61
2023/12/14 11:00:35;;;;;;;5.17;3.37;;;6.70;99.90;;;;;;4970799;28;20271;-59
2023/12/14 11:03:01;;;;;;;5.23;3.10;;;6.60;99.90;;;;;;4971712;28;20257;-61
2023/12/14 11:05:30;;;;;;;6.23;3.37;;;6.60;99.90;;;;;;4971573;28;20368;-61
2023/12/14 11:08:09;;;;;;;6.17;3.37;;;6.60;99.90;;;;;;4971605;28;20514;-57
2023/12/14 11:10:43;;;;;;;5.97;3.53;;;6.70;99.90;;;;;;4970800;28;20198;-58
2023/12/14 11:13:12;;;;;;;5.60;3.57;;;6.80;99.90;;;;;;4971653;28;20178;-61
2023/12/14 11:15:39;;;;;;;7.83;3.90;;;6.80;99.90;;;;;;4971227;28;20185;-60
2023/12/14 11:18:08;;;;;;;7.00;3.50;;;6.90;99.90;;;;;;4971601;28;20181;-60
2023/12/14 11:20:58;;;;;;;4.57;3.20;;;6.90;99.90;;;;;;4970531;28;20308;-62
2023/12/14 11:23:24;;;;;;;3.93;2.50;;;6.80;99.90;;;;;;4971029;28;20742;-61
2023/12/14 11:25:53;;;;;;;4.27;2.70;;;6.70;99.90;;;;;;4971496;28;20201;-60
2023/12/14 11:28:19;;;;;;;4.23;2.40;;;6.70;99.90;;;;;;4985788;28;20216;-60
2023/12/14 11:30:46;;;;;;;3.47;2.47;;;6.70;99.90;;;;;;4970384;28;20575;-63
2023/12/14 11:33:16;;;;;;;3.73;2.43;;;6.70;99.90;;;;;;4970807;28;20188;-62
2023/12/14 11:35:41;;;;;;;4.00;2.70;;;6.70;99.90;;;;;;4963214;28;20201;-63
2023/12/14 11:38:12;;;;;;;9.40;2.50;;;6.60;99.90;;;;;;4971185;28;20178;-62
2023/12/14 11:40:39;;;;;;;3.40;2.03;;;6.60;99.90;;;;;;4970158;28;20229;-62
2023/12/14 11:43:08;;;;;;;3.03;2.10;;;6.70;99.90;;;;;;4971186;28;20190;-60
2023/12/14 11:45:40;;;;;;;2.73;1.77;;;6.70;99.90;;;;;;4970682;28;20189;-61
2023/12/14 11:48:10;;;;;;;4.03;2.90;;;6.70;99.90;;;;;;4970172;28;20202;-58
2023/12/14 11:50:36;;;;;;;4.53;2.10;;;6.70;99.90;;;;;;4969999;28;20640;-63
2023/12/14 11:53:03;;;;;;;2.40;1.77;;;6.70;99.90;;;;;;4969716;28;20185;-59
2023/12/14 11:55:32;;;;;;;2.10;1.57;;;6.60;99.90;;;;;;4970997;28;20182;-62
2023/12/14 11:57:58;;;;;;;4.23;1.77;;;6.50;99.90;;;;;;4970921;28;20177;-64
2023/12/14 12:00:25;;;;;;;3.03;1.80;;;6.60;99.90;;;;;;4970001;28;20205;-61
2023/12/14 12:02:51;;;;;;;2.27;1.60;;;6.60;99.90;;;;;;4970698;28;20237;-62
2023/12/14 12:05:19;;;;;;;3.17;1.80;;;6.70;99.90;;;;;;4970210;28;20687;-62
2023/12/14 12:07:45;;;;;;;2.97;2.00;;;6.70;99.90;;;;;;4970471;28;20202;-63
2023/12/14 12:10:11;;;;;;;3.47;1.87;;;6.80;99.90;;;;;;4969994;28;20708;-64
2023/12/14 12:12:37;;;;;;;5.77;1.83;;;7.00;99.90;;;;;;4970531;28;20194;-63
2023/12/14 12:15:04;;;;;;;2.93;1.70;;;7.10;99.90;;;;;;4970713;28;20181;-64
2023/12/14 12:17:33;;;;;;;2.43;1.60;;;7.10;99.90;;;;;;4970333;28;20570;-61
2023/12/14 12:19:59;;;;;;;2.67;1.70;;;7.10;99.90;;;;;;4970352;28;20198;-64
2023/12/14 12:22:24;;;;;;;4.50;2.00;;;7.10;99.90;;;;;;4970225;28;20252;-63
2023/12/14 12:24:50;;;;;;;4.87;2.07;;;7.10;99.90;;;;;;4969951;28;20202;-63
2023/12/14 12:27:15;;;;;;;5.20;1.83;;;7.00;99.90;;;;;;4968277;28;20252;-62
2023/12/14 12:29:41;;;;;;;3.67;2.00;;;7.00;99.90;;;;;;4970227;28;20208;-62
2023/12/14 12:32:06;;;;;;;3.67;2.20;;;6.90;99.90;;;;;;4970021;28;20232;-60
2023/12/14 12:34:32;;;;;;;3.67;2.03;;;6.80;99.90;;;;;;4970190;28;20182;-62
2023/12/14 12:36:59;;;;;;;3.83;2.30;;;6.80;99.90;;;;;;4970508;28;20193;-62
2023/12/14 12:39:24;;;;;;;4.87;2.10;;;6.70;99.90;;;;;;4969433;28;20186;-62
2023/12/14 12:41:50;;;;;;;4.20;2.10;;;6.60;99.90;;;;;;4969924;28;20742;-62
2023/12/14 12:44:16;;;;;;;4.50;2.60;;;6.60;99.90;;;;;;4970497;28;20612;-61